Time;durP1;ratioP1;P1;durP2;ratioP2;P2;SDS_P1;SDS_P2;PMS_P1;PMS_P2;Temp;Humidity;BMP_temperature;BMP_pressure;BME280_temperature;BME280_humidity;BME280_pressure;Samples;Min_cycle;Max_cycle;Signal;HPM_P1;HPM_P2
2021/11/02 00:01:41;;;;;;;3.35;1.35;;;;;;;;;;5051012;28;20060;-93
2021/11/02 00:04:09;;;;;;;2.60;1.10;;;;;;;;;;5066493;28;20136;-94
2021/11/02 00:06:38;;;;;;;4.57;1.10;;;;;;;;;;5053250;28;20025;-94
2021/11/02 00:09:10;;;;;;;2.90;1.00;;;;;;;;;;5054446;28;20476;-95
2021/11/02 00:11:37;;;;;;;2.45;1.00;;;;;;;;;;5062178;28;20033;-92
2021/11/02 00:14:09;;;;;;;2.40;0.88;;;;;;;;;;5061722;28;20093;-93
2021/11/02 00:16:36;;;;;;;1.83;0.80;;;;;;;;;;5050484;28;20025;-94
2021/11/02 00:19:05;;;;;;;4.35;1.27;;;;;;;;;;5072454;28;20048;-95
2021/11/02 00:21:40;;;;;;;1.83;0.80;;;;;;;;;;5055211;28;20092;-94
2021/11/02 00:24:27;;;;;;;2.38;1.02;;;;;;;;;;5057740;28;20029;-93
2021/11/02 00:26:53;;;;;;;2.90;0.90;;;;;;;;;;5074412;28;20443;-93
2021/11/02 00:29:20;;;;;;;2.45;1.17;;;;;;;;;;5059647;28;20389;-94
2021/11/02 00:31:46;;;;;;;1.48;0.70;;;;;;;;;;5065916;28;20536;-93
2021/11/02 00:34:13;;;;;;;1.40;0.70;;;;;;;;;;5064119;28;20068;-87
2021/11/02 00:36:40;;;;;;;4.22;1.20;;;;;;;;;;5054284;28;20032;-93
2021/11/02 00:39:06;;;;;;;2.13;0.98;;;;;;;;;;5065419;28;20059;-92
2021/11/02 00:41:33;;;;;;;2.58;1.08;;;;;;;;;;5049047;28;20056;-93
2021/11/02 00:44:00;;;;;;;2.25;0.93;;;;;;;;;;5068104;28;20035;-92
2021/11/02 00:46:31;;;;;;;3.40;1.00;;;;;;;;;;5035300;28;20025;-93
2021/11/02 00:48:59;;;;;;;1.90;0.85;;;;;;;;;;5055647;28;20026;-93
2021/11/02 00:51:26;;;;;;;1.50;0.80;;;;;;;;;;5059610;28;20037;-94
2021/11/02 00:53:53;;;;;;;1.23;0.80;;;;;;;;;;5081222;28;20032;-93
2021/11/02 00:56:19;;;;;;;0.95;0.73;;;;;;;;;;5067295;28;20037;-93
2021/11/02 00:58:46;;;;;;;2.50;0.90;;;;;;;;;;5056952;28;20053;-93
2021/11/02 01:01:13;;;;;;;3.50;0.70;;;;;;;;;;5075163;28;20025;-90
2021/11/02 01:03:40;;;;;;;1.25;0.85;;;;;;;;;;5048445;28;20033;-92
2021/11/02 01:06:07;;;;;;;3.00;1.13;;;;;;;;;;5057259;28;20029;-93
2021/11/02 01:08:34;;;;;;;2.92;0.90;;;;;;;;;;5057233;28;20037;-94
2021/11/02 01:11:00;;;;;;;3.58;0.95;;;;;;;;;;5048139;28;20017;-94
2021/11/02 01:13:27;;;;;;;2.45;0.82;;;;;;;;;;5074151;28;20060;-94
2021/11/02 01:15:54;;;;;;;2.22;1.00;;;;;;;;;;5063827;28;20033;-95
2021/11/02 01:18:20;;;;;;;2.20;1.08;;;;;;;;;;5063208;28;20039;-95
2021/11/02 01:20:47;;;;;;;3.13;1.15;;;;;;;;;;5044957;28;20033;-95
2021/11/02 01:23:14;;;;;;;2.10;0.90;;;;;;;;;;5047417;28;20028;-92
2021/11/02 01:25:41;;;;;;;3.33;1.10;;;;;;;;;;5063894;28;20025;-93
2021/11/02 01:28:08;;;;;;;2.13;0.80;;;;;;;;;;5068219;28;20067;-94
2021/11/02 01:30:34;;;;;;;2.60;1.00;;;;;;;;;;5059202;28;20515;-94
2021/11/02 01:33:01;;;;;;;1.83;0.75;;;;;;;;;;5072674;28;20036;-94
2021/11/02 01:35:29;;;;;;;2.70;1.05;;;;;;;;;;5031783;28;20152;-94
2021/11/02 01:37:55;;;;;;;1.83;0.90;;;;;;;;;;5058035;28;20022;-94
2021/11/02 01:40:22;;;;;;;2.17;0.85;;;;;;;;;;5072085;28;20488;-93
2021/11/02 01:42:50;;;;;;;2.60;1.02;;;;;;;;;;5033632;28;20075;-94
2021/11/02 01:45:17;;;;;;;3.58;1.00;;;;;;;;;;5060097;28;20034;-91
2021/11/02 01:47:45;;;;;;;1.90;0.80;;;;;;;;;;5051787;28;20040;-93
2021/11/02 01:50:13;;;;;;;2.92;0.93;;;;;;;;;;5075048;28;20025;-82
2021/11/02 01:52:40;;;;;;;1.67;0.77;;;;;;;;;;5059998;28;20039;-94
2021/11/02 01:55:08;;;;;;;3.33;1.15;;;;;;;;;;5070694;28;20052;-93
2021/11/02 01:57:35;;;;;;;2.92;0.80;;;;;;;;;;5053761;28;20025;-93
2021/11/02 02:00:03;;;;;;;3.22;1.00;;;;;;;;;;5052100;28;20029;-93
2021/11/02 02:02:35;;;;;;;2.42;0.90;;;;;;;;;;5062089;28;20029;-92
2021/11/02 02:05:02;;;;;;;1.83;0.77;;;;;;;;;;5064638;28;20017;-94
2021/11/02 02:07:47;;;;;;;2.00;0.70;;;;;;;;;;5060781;28;20117;-93
2021/11/02 02:10:13;;;;;;;2.72;0.90;;;;;;;;;;5067061;28;20029;-87
2021/11/02 02:12:47;;;;;;;2.67;1.10;;;;;;;;;;5052293;28;20080;-94
2021/11/02 02:15:20;;;;;;;3.28;0.80;;;;;;;;;;5054403;28;20017;-88
2021/11/02 02:18:03;;;;;;;2.88;0.90;;;;;;;;;;5040660;28;20033;-93
2021/11/02 02:20:50;;;;;;;1.40;0.80;;;;;;;;;;5004062;28;20052;-95
2021/11/02 02:23:17;;;;;;;1.33;0.70;;;;;;;;;;5049494;28;20029;-91
2021/11/02 02:25:52;;;;;;;1.95;0.80;;;;;;;;;;5050914;28;20093;-94
2021/11/02 02:28:52;;;;;;;2.40;0.85;;;;;;;;;;5054965;28;20055;-94
2021/11/02 02:31:20;;;;;;;3.15;1.20;;;;;;;;;;5047449;28;20028;-90
2021/11/02 02:33:47;;;;;;;2.10;0.82;;;;;;;;;;5064611;28;20055;-94
2021/11/02 02:36:15;;;;;;;2.40;0.90;;;;;;;;;;5059146;28;20037;-91
2021/11/02 02:38:45;;;;;;;2.33;0.88;;;;;;;;;;5045059;28;20029;-95
2021/11/02 02:41:12;;;;;;;2.70;0.88;;;;;;;;;;5065821;28;20986;-93
2021/11/02 02:43:43;;;;;;;1.52;0.70;;;;;;;;;;5054902;28;20033;-94
2021/11/02 02:46:10;;;;;;;1.48;0.52;;;;;;;;;;5061349;28;20021;-95
2021/11/02 02:48:40;;;;;;;1.88;0.80;;;;;;;;;;5049522;28;20029;-93
2021/11/02 02:51:07;;;;;;;2.45;0.90;;;;;;;;;;5069865;28;20546;-96
2021/11/02 02:53:41;;;;;;;2.35;1.20;;;;;;;;;;5070840;28;20025;-93
2021/11/02 02:56:08;;;;;;;1.33;0.63;;;;;;;;;;5065548;28;20033;-95
2021/11/02 02:58:36;;;;;;;2.72;0.98;;;;;;;;;;5061710;28;20010;-94
2021/11/02 03:01:05;;;;;;;2.40;0.88;;;;;;;;;;5069631;28;20013;-93
2021/11/02 03:03:33;;;;;;;1.63;0.80;;;;;;;;;;5054733;28;20029;-95
2021/11/02 03:06:01;;;;;;;3.08;0.98;;;;;;;;;;5067085;28;20055;-94
2021/11/02 03:08:28;;;;;;;1.98;1.00;;;;;;;;;;5070417;28;20016;-95
2021/11/02 03:10:55;;;;;;;2.20;0.98;;;;;;;;;;5063858;28;20055;-95
2021/11/02 03:13:23;;;;;;;2.08;0.80;;;;;;;;;;5060384;28;20056;-93
2021/11/02 03:16:03;;;;;;;1.92;0.90;;;;;;;;;;5065267;28;20079;-93
2021/11/02 03:44:58;;;;;;;1.75;0.80;;;;;;;;;;5064800;28;20043;-94
2021/11/02 03:54:28;;;;;;;1.85;0.80;;;;;;;;;;5058457;28;20041;-92
2021/11/02 03:54:56;;;;;;;1.42;0.75;;;;;;;;;;5061222;28;20030;-94
2021/11/02 03:57:52;;;;;;;1.60;0.80;;;;;;;;;;5065224;28;20029;-93
2021/11/02 04:23:26;;;;;;;1.88;0.73;;;;;;;;;;5062093;28;20037;-94
2021/11/02 04:28:42;;;;;;;1.77;0.70;;;;;;;;;;5068485;28;20511;-92
2021/11/02 05:07:43;;;;;;;2.58;0.80;;;;;;;;;;4995735;28;20034;-95
2021/11/02 05:48:42;;;;;;;2.65;1.10;;;;;;;;;;5045210;28;20226;-94
2021/11/02 06:07:07;;;;;;;2.05;1.17;;;;;;;;;;5064665;28;20044;-94
2021/11/02 06:09:49;;;;;;;2.33;1.10;;;;;;;;;;5056506;28;20056;-94
2021/11/02 06:29:18;;;;;;;2.58;1.15;;;;;;;;;;5071782;28;20017;-86
2021/11/02 06:32:03;;;;;;;2.63;1.00;;;;;;;;;;5066013;28;20033;-95
2021/11/02 06:48:20;;;;;;;2.50;1.10;;;;;;;;;;5056482;28;20030;-94
2021/11/02 07:18:58;;;;;;;2.77;1.20;;;;;;;;;;5059707;28;20036;-96
2021/11/02 07:24:30;;;;;;;2.50;1.27;;;;;;;;;;5057953;28;20029;-95
2021/11/02 08:48:09;;;;;;;2.90;1.30;;;;;;;;;;5051817;28;20024;-94
2021/11/02 08:50:49;;;;;;;2.63;1.13;;;;;;;;;;5060660;28;20025;-94
2021/11/02 08:53:21;;;;;;;3.75;1.35;;;;;;;;;;5065285;28;20484;-83
2021/11/02 08:55:51;;;;;;;3.83;1.60;;;;;;;;;;5049730;28;20038;-94
2021/11/02 08:58:28;;;;;;;2.00;1.20;;;;;;;;;;5071203;28;20033;-89
2021/11/02 09:00:56;;;;;;;3.95;1.70;;;;;;;;;;5068977;28;20029;-94
2021/11/02 09:03:23;;;;;;;2.75;1.23;;;;;;;;;;5072218;28;20031;-94
2021/11/02 09:06:03;;;;;;;2.85;1.30;;;;;;;;;;5068714;28;20036;-96
2021/11/02 09:08:30;;;;;;;3.38;1.42;;;;;;;;;;5068911;28;20243;-95
2021/11/02 09:11:01;;;;;;;2.55;1.42;;;;;;;;;;5069807;28;20029;-94
2021/11/02 09:13:31;;;;;;;3.95;1.58;;;;;;;;;;5055907;28;20049;-93
2021/11/02 09:16:01;;;;;;;3.55;1.45;;;;;;;;;;5071607;28;20055;-93
2021/11/02 09:18:30;;;;;;;2.53;1.50;;;;;;;;;;5059606;28;20029;-94
2021/11/02 09:21:00;;;;;;;3.85;1.60;;;;;;;;;;5071844;28;20024;-95
2021/11/02 09:23:27;;;;;;;3.88;1.65;;;;;;;;;;5058572;28;20157;-94
2021/11/02 09:25:54;;;;;;;4.32;1.50;;;;;;;;;;5042261;28;20059;-94
2021/11/02 09:28:20;;;;;;;2.63;1.40;;;;;;;;;;5044845;28;20118;-94
2021/11/02 09:30:47;;;;;;;2.97;1.48;;;;;;;;;;5067010;28;20400;-93
2021/11/02 09:33:14;;;;;;;2.63;1.40;;;;;;;;;;5048463;28;20013;-83
2021/11/02 09:35:41;;;;;;;2.92;1.40;;;;;;;;;;5055809;28;20081;-93
2021/11/02 09:38:07;;;;;;;3.55;1.63;;;;;;;;;;5056999;28;20029;-94
2021/11/02 09:40:47;;;;;;;2.97;1.50;;;;;;;;;;5070581;28;20048;-93
2021/11/02 09:43:22;;;;;;;3.03;1.40;;;;;;;;;;5051898;28;20013;-83
2021/11/02 09:46:11;;;;;;;4.90;1.50;;;;;;;;;;5050070;28;20041;-94
2021/11/02 09:48:44;;;;;;;4.22;1.80;;;;;;;;;;5064122;28;20029;-94
2021/11/02 09:51:29;;;;;;;2.35;1.35;;;;;;;;;;5065872;28;20039;-93
2021/11/02 09:54:12;;;;;;;3.55;1.70;;;;;;;;;;5061225;28;20041;-95
2021/11/02 09:56:48;;;;;;;4.25;1.55;;;;;;;;;;5065829;28;20105;-94
2021/11/02 09:59:15;;;;;;;3.22;1.65;;;;;;;;;;5052310;28;20017;-85
2021/11/02 10:01:49;;;;;;;2.65;1.35;;;;;;;;;;5073685;28;20031;-93
2021/11/02 10:04:18;;;;;;;;;;;;;;;;;;5041635;28;20044;-85
2021/11/02 10:06:56;;;;;;;3.85;1.40;;;;;;;;;;5061387;28;19935;-94
2021/11/02 10:09:41;;;;;;;3.42;1.60;;;;;;;;;;5062999;28;20041;-94
2021/11/02 10:12:16;;;;;;;4.10;1.90;;;;;;;;;;5085878;28;20017;-93
2021/11/02 10:14:50;;;;;;;3.10;1.63;;;;;;;;;;5079561;28;20052;-93
2021/11/02 10:17:30;;;;;;;2.65;1.50;;;;;;;;;;5098167;28;20033;-84
2021/11/02 10:20:11;;;;;;;3.53;1.55;;;;;;;;;;5034129;28;20017;-93
2021/11/02 10:22:52;;;;;;;2.90;1.45;;;;;;;;;;5077346;28;20130;-94
2021/11/02 10:25:38;;;;;;;4.38;1.50;;;;;;;;;;5079291;28;20021;-83
2021/11/02 10:28:23;;;;;;;2.90;1.50;;;;;;;;;;5071284;28;20037;-93
2021/11/02 10:30:50;;;;;;;3.22;2.00;;;;;;;;;;5077373;28;20017;-93
2021/11/02 10:33:16;;;;;;;4.60;1.70;;;;;;;;;;5079658;28;20071;-87
2021/11/02 10:35:56;;;;;;;4.10;1.95;;;;;;;;;;5076237;28;20024;-93
2021/11/02 10:38:27;;;;;;;3.88;1.70;;;;;;;;;;5066933;28;20041;-92
2021/11/02 10:40:59;;;;;;;2.35;1.30;;;;;;;;;;5074765;28;20013;-84
2021/11/02 10:43:44;;;;;;;2.30;1.40;;;;;;;;;;5060939;28;20032;-94
2021/11/02 10:46:12;;;;;;;2.65;1.58;;;;;;;;;;5045943;28;20097;-94
2021/11/02 10:48:41;;;;;;;2.72;1.52;;;;;;;;;;5066120;28;20077;-93
2021/11/02 10:51:09;;;;;;;3.10;1.58;;;;;;;;;;5052086;28;20043;-95
2021/11/02 10:53:41;;;;;;;2.50;1.42;;;;;;;;;;5059497;28;20043;-91
2021/11/02 10:56:26;;;;;;;3.28;1.75;;;;;;;;;;5060018;28;20056;-95
2021/11/02 10:58:57;;;;;;;4.10;1.77;;;;;;;;;;5057465;28;20021;-87
2021/11/02 11:01:27;;;;;;;3.15;1.73;;;;;;;;;;5074726;28;20032;-79
2021/11/02 11:03:56;;;;;;;2.97;1.50;;;;;;;;;;5078907;28;20085;-88
2021/11/02 11:06:24;;;;;;;3.28;1.50;;;;;;;;;;5052127;28;20044;-79
2021/11/02 11:08:54;;;;;;;3.30;1.90;;;;;;;;;;5058411;28;20033;-94
2021/11/02 11:11:29;;;;;;;3.03;1.60;;;;;;;;;;5080361;28;20136;-84
2021/11/02 11:14:08;;;;;;;2.70;1.55;;;;;;;;;;5064495;28;20047;-94
2021/11/02 11:16:37;;;;;;;3.63;1.75;;;;;;;;;;5062410;28;20064;-94
2021/11/02 11:19:27;;;;;;;3.20;1.60;;;;;;;;;;5088172;28;20033;-94
2021/11/02 11:21:59;;;;;;;3.58;1.52;;;;;;;;;;5037937;28;20031;-94
2021/11/02 11:24:25;;;;;;;4.47;1.73;;;;;;;;;;5054001;28;20040;-93
2021/11/02 11:26:53;;;;;;;2.60;1.48;;;;;;;;;;5063718;28;20080;-95
2021/11/02 11:29:24;;;;;;;3.97;1.83;;;;;;;;;;5065784;28;20012;-91
2021/11/02 11:31:52;;;;;;;3.85;1.60;;;;;;;;;;5059470;28;20055;-94
2021/11/02 11:34:19;;;;;;;4.43;1.88;;;;;;;;;;5060572;28;20037;-88
2021/11/02 11:36:56;;;;;;;3.83;1.70;;;;;;;;;;5075761;28;20028;-95
2021/11/02 11:39:24;;;;;;;4.55;2.00;;;;;;;;;;5076680;28;20056;-93
2021/11/02 11:41:52;;;;;;;4.22;1.67;;;;;;;;;;5084198;28;20033;-94
2021/11/02 11:44:25;;;;;;;3.00;1.70;;;;;;;;;;5064212;28;20033;-93
2021/11/02 11:47:09;;;;;;;3.75;1.60;;;;;;;;;;5078555;28;20029;-95
2021/11/02 11:49:37;;;;;;;3.15;1.55;;;;;;;;;;5031747;28;20066;-93
2021/11/02 11:52:08;;;;;;;3.65;1.73;;;;;;;;;;5077201;28;20021;-94
2021/11/02 11:54:45;;;;;;;2.92;1.88;;;;;;;;;;5053006;28;20167;-94
2021/11/02 11:57:13;;;;;;;2.83;1.75;;;;;;;;;;5073640;28;20047;-94
2021/11/02 11:59:43;;;;;;;3.53;1.92;;;;;;;;;;5049447;28;20037;-93
2021/11/02 12:02:13;;;;;;;3.97;1.95;;;;;;;;;;5039012;28;20041;-95
2021/11/02 12:04:51;;;;;;;3.88;1.55;;;;;;;;;;5068467;28;20033;-94
2021/11/02 12:07:37;;;;;;;3.30;1.70;;;;;;;;;;5055856;28;20025;-94
2021/11/02 12:10:07;;;;;;;2.50;1.48;;;;;;;;;;5065933;28;20112;-94
2021/11/02 12:12:37;;;;;;;3.85;1.73;;;;;;;;;;5043072;28;20056;-93
2021/11/02 12:15:11;;;;;;;3.38;1.55;;;;;;;;;;5083809;28;20045;-94
2021/11/02 12:17:42;;;;;;;2.90;1.80;;;;;;;;;;5059560;28;20028;-94
2021/11/02 12:20:13;;;;;;;4.00;1.50;;;;;;;;;;5068910;28;20060;-93
2021/11/02 12:22:44;;;;;;;;;;;;;;;;;;5061801;28;20050;-93
2021/11/02 12:25:12;;;;;;;3.80;1.58;;;;;;;;;;5071671;28;19912;-93
2021/11/02 12:27:42;;;;;;;2.80;1.60;;;;;;;;;;5069437;28;20029;-92
2021/11/02 12:30:14;;;;;;;2.83;1.73;;;;;;;;;;5050437;28;20029;-93
2021/11/02 12:32:45;;;;;;;3.95;2.03;;;;;;;;;;5057310;28;20032;-93
2021/11/02 12:35:15;;;;;;;3.47;1.60;;;;;;;;;;5066288;28;20028;-94
2021/11/02 12:37:56;;;;;;;4.00;2.05;;;;;;;;;;5036740;28;20043;-95
2021/11/02 12:40:32;;;;;;;2.90;2.10;;;;;;;;;;5067387;28;20040;-95
2021/11/02 12:43:01;;;;;;;2.78;1.70;;;;;;;;;;5051829;28;20040;-95
2021/11/02 12:45:28;;;;;;;4.03;1.80;;;;;;;;;;5034769;28;20221;-94
2021/11/02 12:48:00;;;;;;;2.88;1.80;;;;;;;;;;5066574;28;20040;-94
2021/11/02 12:50:36;;;;;;;3.47;1.80;;;;;;;;;;5044684;28;20044;-94
2021/11/02 12:53:03;;;;;;;3.83;1.90;;;;;;;;;;5065523;28;20048;-94
2021/11/02 12:55:33;;;;;;;3.10;1.63;;;;;;;;;;5071278;28;20044;-94
2021/11/02 12:58:20;;;;;;;3.25;2.10;;;;;;;;;;5063561;28;20097;-95
2021/11/02 13:00:51;;;;;;;2.22;1.58;;;;;;;;;;5055618;28;20074;-95
2021/11/02 13:03:22;;;;;;;2.70;1.52;;;;;;;;;;5062844;28;20033;-86
2021/11/02 13:05:51;;;;;;;;;;;;;;;;;;5053351;28;20029;-94
2021/11/02 13:08:22;;;;;;;4.32;2.00;;;;;;;;;;5070674;28;19909;-89
2021/11/02 13:10:51;;;;;;;2.95;1.63;;;;;;;;;;5054764;28;20036;-94
2021/11/02 13:13:22;;;;;;;3.55;1.80;;;;;;;;;;5064850;28;20029;-92
2021/11/02 13:15:52;;;;;;;2.53;1.70;;;;;;;;;;5063311;28;20028;-94
2021/11/02 13:18:38;;;;;;;2.92;1.95;;;;;;;;;;5062863;28;20017;-92
2021/11/02 13:21:21;;;;;;;3.08;2.05;;;;;;;;;;5062688;28;20443;-93
2021/11/02 13:23:53;;;;;;;3.33;1.80;;;;;;;;;;5057044;28;20055;-94
2021/11/02 13:26:20;;;;;;;3.13;1.77;;;;;;;;;;5062516;28;20025;-94
2021/11/02 13:28:47;;;;;;;2.97;1.90;;;;;;;;;;5069094;28;20029;-95
2021/11/02 13:31:27;;;;;;;2.70;1.92;;;;;;;;;;5066109;28;20040;-87
2021/11/02 13:34:05;;;;;;;2.67;1.88;;;;;;;;;;5070861;28;20052;-93
2021/11/02 13:36:37;;;;;;;3.92;2.00;;;;;;;;;;5054094;28;20395;-94
2021/11/02 13:39:03;;;;;;;3.30;1.90;;;;;;;;;;5057008;28;20051;-94
2021/11/02 13:41:31;;;;;;;2.33;1.73;;;;;;;;;;5070490;28;20033;-94
2021/11/02 13:44:04;;;;;;;3.67;1.98;;;;;;;;;;5053475;28;20025;-94
2021/11/02 13:46:35;;;;;;;2.50;1.70;;;;;;;;;;5039351;28;20033;-93
2021/11/02 13:49:03;;;;;;;3.35;1.90;;;;;;;;;;5071663;28;20052;-93
2021/11/02 13:51:30;;;;;;;3.90;2.20;;;;;;;;;;5045895;28;20048;-92
2021/11/02 13:53:57;;;;;;;4.45;2.05;;;;;;;;;;5056605;28;20035;-95
2021/11/02 13:56:25;;;;;;;4.13;2.20;;;;;;;;;;5065049;28;20045;-93
2021/11/02 13:58:54;;;;;;;3.28;1.92;;;;;;;;;;5028192;28;20013;-94
2021/11/02 14:01:45;;;;;;;3.47;2.10;;;;;;;;;;5024008;28;20091;-93
2021/11/02 14:04:14;;;;;;;2.63;1.98;;;;;;;;;;5054201;28;20032;-93
2021/11/02 14:06:43;;;;;;;4.13;1.95;;;;;;;;;;5053526;28;20052;-94
2021/11/02 14:09:11;;;;;;;2.90;1.80;;;;;;;;;;5065726;28;20025;-93
2021/11/02 14:11:38;;;;;;;2.30;1.58;;;;;;;;;;5046104;28;20034;-92
2021/11/02 14:14:06;;;;;;;2.75;1.83;;;;;;;;;;5045391;28;20057;-94
2021/11/02 14:16:38;;;;;;;3.58;1.98;;;;;;;;;;5060387;28;20025;-92
2021/11/02 14:19:05;;;;;;;2.13;1.58;;;;;;;;;;5023667;28;20090;-94
2021/11/02 14:21:51;;;;;;;2.00;1.50;;;;;;;;;;5057823;28;20055;-93
2021/11/02 14:24:39;;;;;;;2.92;2.10;;;;;;;;;;5040196;28;20024;-91
2021/11/02 14:27:07;;;;;;;3.20;2.22;;;;;;;;;;5071990;28;20040;-95
2021/11/02 14:29:45;;;;;;;3.53;2.10;;;;;;;;;;5045873;28;20312;-93
2021/11/02 14:32:12;;;;;;;4.35;2.17;;;;;;;;;;5063689;28;20621;-93
2021/11/02 14:34:38;;;;;;;4.03;2.10;;;;;;;;;;5051859;28;20412;-94
2021/11/02 14:37:16;;;;;;;4.60;2.20;;;;;;;;;;5058744;28;20033;-94
2021/11/02 14:39:58;;;;;;;2.67;1.70;;;;;;;;;;5060686;28;20040;-94
2021/11/02 14:42:44;;;;;;;2.65;1.92;;;;;;;;;;5053247;28;20025;-94
2021/11/02 14:45:11;;;;;;;2.80;1.80;;;;;;;;;;5063208;28;20029;-93
2021/11/02 14:47:38;;;;;;;2.85;1.80;;;;;;;;;;5066939;28;20055;-92
2021/11/02 14:50:25;;;;;;;3.95;1.98;;;;;;;;;;5060172;28;20358;-92
2021/11/02 14:52:51;;;;;;;4.32;1.73;;;;;;;;;;5062920;28;20165;-93
2021/11/02 14:55:36;;;;;;;2.70;2.00;;;;;;;;;;5059657;28;20053;-93
2021/11/02 14:58:03;;;;;;;3.63;1.73;;;;;;;;;;5063856;28;20033;-96
2021/11/02 15:00:39;;;;;;;2.40;1.60;;;;;;;;;;5056619;28;20049;-94
2021/11/02 15:03:15;;;;;;;2.70;1.70;;;;;;;;;;5020080;28;20029;-95
2021/11/02 15:05:42;;;;;;;2.83;1.70;;;;;;;;;;5066064;28;21740;-94
2021/11/02 15:08:13;;;;;;;2.70;1.80;;;;;;;;;;5060934;28;20093;-93
2021/11/02 15:10:43;;;;;;;2.95;1.70;;;;;;;;;;5062323;28;20044;-93
2021/11/02 15:13:10;;;;;;;3.70;1.92;;;;;;;;;;5068037;28;20036;-94
2021/11/02 15:15:37;;;;;;;4.63;2.42;;;;;;;;;;5055942;28;20033;-94
2021/11/02 15:18:05;;;;;;;2.80;1.85;;;;;;;;;;5060711;28;20025;-94
2021/11/02 15:20:31;;;;;;;3.13;2.25;;;;;;;;;;5048077;28;20095;-93
2021/11/02 15:22:58;;;;;;;2.97;1.80;;;;;;;;;;5066678;28;20030;-95
2021/11/02 15:25:24;;;;;;;3.58;2.03;;;;;;;;;;5057247;28;20036;-93
2021/11/02 15:27:58;;;;;;;3.53;2.38;;;;;;;;;;5052244;28;20048;-93
2021/11/02 15:30:25;;;;;;;3.38;2.03;;;;;;;;;;5051199;28;20033;-94
2021/11/02 15:32:51;;;;;;;3.90;1.90;;;;;;;;;;5050063;28;20067;-95
2021/11/02 15:35:19;;;;;;;3.45;2.00;;;;;;;;;;5037034;28;20052;-85
2021/11/02 15:37:47;;;;;;;3.65;2.00;;;;;;;;;;5070656;28;20060;-95
2021/11/02 15:40:21;;;;;;;2.85;2.00;;;;;;;;;;5057449;28;20056;-95
2021/11/02 15:42:55;;;;;;;3.38;2.05;;;;;;;;;;5057013;28;20035;-94
2021/11/02 15:45:35;;;;;;;3.42;1.92;;;;;;;;;;5036683;28;20206;-94
2021/11/02 15:48:04;;;;;;;4.18;2.20;;;;;;;;;;5068256;28;20025;-94
2021/11/02 15:50:33;;;;;;;3.63;1.80;;;;;;;;;;5059391;28;20029;-95
2021/11/02 15:53:04;;;;;;;3.78;2.20;;;;;;;;;;5055995;28;20037;-93
2021/11/02 15:55:31;;;;;;;3.35;2.15;;;;;;;;;;5043124;28;20049;-93
2021/11/02 15:57:59;;;;;;;3.30;1.83;;;;;;;;;;5058105;28;20049;-94
2021/11/02 16:00:26;;;;;;;4.13;1.80;;;;;;;;;;5040670;28;20037;-93
2021/11/02 16:02:53;;;;;;;3.10;1.90;;;;;;;;;;5049951;28;20049;-93
2021/11/02 16:05:21;;;;;;;3.33;1.90;;;;;;;;;;5054135;28;20082;-93
2021/11/02 16:07:48;;;;;;;3.22;1.83;;;;;;;;;;5041837;28;20088;-94
2021/11/02 16:10:15;;;;;;;3.08;1.70;;;;;;;;;;5068412;28;20093;-94
2021/11/02 16:12:43;;;;;;;3.30;1.88;;;;;;;;;;5056181;28;20047;-94
2021/11/02 16:15:11;;;;;;;3.38;1.80;;;;;;;;;;5058272;28;20034;-95
2021/11/02 16:17:45;;;;;;;2.78;1.90;;;;;;;;;;5059358;28;20025;-94
2021/11/02 16:20:16;;;;;;;3.97;2.05;;;;;;;;;;5054987;28;20025;-93
2021/11/02 16:22:47;;;;;;;3.13;1.80;;;;;;;;;;5056018;28;20299;-92
2021/11/02 16:25:14;;;;;;;;;;;;;;;;;;5050116;28;20033;-94
2021/11/02 16:27:40;;;;;;;2.80;1.92;;;;;;;;;;5055074;28;19916;-94
2021/11/02 16:30:18;;;;;;;3.88;2.30;;;;;;;;;;5059408;28;20021;-93
2021/11/02 16:32:47;;;;;;;2.70;1.92;;;;;;;;;;5060810;28;20029;-92
2021/11/02 16:35:30;;;;;;;4.50;2.30;;;;;;;;;;5063676;28;20071;-94
2021/11/02 16:37:56;;;;;;;3.80;1.90;;;;;;;;;;5057384;28;20029;-94
2021/11/02 16:40:24;;;;;;;2.55;1.70;;;;;;;;;;5079282;28;20041;-94
2021/11/02 16:42:55;;;;;;;5.05;2.30;;;;;;;;;;5062664;28;20083;-91
2021/11/02 16:45:22;;;;;;;3.17;2.15;;;;;;;;;;5063452;28;20040;-92
2021/11/02 16:47:56;;;;;;;3.70;2.08;;;;;;;;;;5065306;28;20029;-94
2021/11/02 16:50:27;;;;;;;3.13;1.90;;;;;;;;;;5055120;28;20030;-91
2021/11/02 16:52:53;;;;;;;3.40;1.90;;;;;;;;;;5077650;28;20032;-94
2021/11/02 16:55:19;;;;;;;3.35;2.30;;;;;;;;;;5060197;28;20046;-93
2021/11/02 16:57:47;;;;;;;3.03;2.00;;;;;;;;;;5064439;28;20048;-92
2021/11/02 17:00:15;;;;;;;3.40;1.90;;;;;;;;;;5019831;28;20075;-93
2021/11/02 17:02:46;;;;;;;4.40;2.25;;;;;;;;;;5053007;28;20115;-91
2021/11/02 17:05:14;;;;;;;3.75;2.22;;;;;;;;;;5067220;28;20083;-94
2021/11/02 17:07:43;;;;;;;3.83;2.20;;;;;;;;;;5067100;28;20033;-95
2021/11/02 17:10:18;;;;;;;3.60;1.88;;;;;;;;;;5051491;28;20058;-94
2021/11/02 17:12:48;;;;;;;4.05;2.00;;;;;;;;;;5066021;28;21288;-93
2021/11/02 17:15:19;;;;;;;3.58;1.83;;;;;;;;;;5067933;28;20037;-95
2021/11/02 17:17:46;;;;;;;3.03;1.80;;;;;;;;;;5056315;28;20036;-93
2021/11/02 17:20:14;;;;;;;4.03;2.25;;;;;;;;;;5062937;28;20033;-94
2021/11/02 17:22:41;;;;;;;3.65;2.03;;;;;;;;;;5052378;28;20059;-94
2021/11/02 17:25:08;;;;;;;3.17;2.00;;;;;;;;;;5042586;28;20025;-95
2021/11/02 17:27:35;;;;;;;3.63;1.73;;;;;;;;;;5061538;28;20059;-93
2021/11/02 17:30:03;;;;;;;3.30;1.88;;;;;;;;;;5065583;28;20017;-94
2021/11/02 17:32:30;;;;;;;3.50;1.63;;;;;;;;;;5040040;28;20084;-94
2021/11/02 17:35:00;;;;;;;4.07;2.10;;;;;;;;;;5054172;28;20508;-93
2021/11/02 17:37:30;;;;;;;3.22;1.83;;;;;;;;;;5057549;28;20067;-94
2021/11/02 17:39:58;;;;;;;4.70;2.13;;;;;;;;;;5054494;28;20021;-93
2021/11/02 17:42:32;;;;;;;3.78;2.05;;;;;;;;;;5059167;28;20013;-93
2021/11/02 17:44:59;;;;;;;4.03;2.33;;;;;;;;;;5047311;28;20084;-95
2021/11/02 17:47:26;;;;;;;4.75;2.28;;;;;;;;;;5055680;28;20055;-94
2021/11/02 17:49:56;;;;;;;3.97;2.28;;;;;;;;;;5065136;28;20037;-95
2021/11/02 17:52:22;;;;;;;3.53;1.80;;;;;;;;;;5059695;28;20021;-96
2021/11/02 17:54:49;;;;;;;3.78;2.40;;;;;;;;;;5059387;28;20045;-94
2021/11/02 17:57:16;;;;;;;4.90;2.30;;;;;;;;;;5057816;28;20071;-93
2021/11/02 17:59:43;;;;;;;3.78;2.10;;;;;;;;;;5052897;28;20320;-93
2021/11/02 18:02:11;;;;;;;4.72;2.25;;;;;;;;;;5050751;28;20029;-93
2021/11/02 18:04:38;;;;;;;5.38;2.38;;;;;;;;;;5055773;28;20431;-94
2021/11/02 18:07:05;;;;;;;4.15;2.28;;;;;;;;;;5060838;28;20032;-93
2021/11/02 18:09:37;;;;;;;5.15;2.55;;;;;;;;;;5052746;28;20029;-95
2021/11/02 18:12:03;;;;;;;6.60;2.50;;;;;;;;;;5059575;28;20054;-94
2021/11/02 18:14:32;;;;;;;5.20;2.50;;;;;;;;;;5055025;28;20083;-94
2021/11/02 18:16:59;;;;;;;4.68;2.45;;;;;;;;;;5046929;28;20041;-92
2021/11/02 18:19:27;;;;;;;5.63;2.50;;;;;;;;;;5072441;28;20057;-94
2021/11/02 18:21:54;;;;;;;5.18;2.47;;;;;;;;;;5068713;28;20041;-94
2021/11/02 18:24:26;;;;;;;4.90;2.42;;;;;;;;;;5086625;28;20485;-93
2021/11/02 18:26:53;;;;;;;4.03;2.28;;;;;;;;;;5064438;28;20689;-94
2021/11/02 18:29:20;;;;;;;5.22;2.47;;;;;;;;;;5052788;28;20059;-92
2021/11/02 18:31:48;;;;;;;3.95;2.17;;;;;;;;;;5070457;28;20047;-94
2021/11/02 18:34:14;;;;;;;5.47;2.53;;;;;;;;;;5057009;28;20038;-94
2021/11/02 18:36:41;;;;;;;4.85;2.40;;;;;;;;;;5059918;28;20029;-95
2021/11/02 18:39:08;;;;;;;6.38;2.60;;;;;;;;;;5065194;28;20025;-95
2021/11/02 18:41:34;;;;;;;5.57;2.70;;;;;;;;;;5053491;28;20439;-94
2021/11/02 18:44:01;;;;;;;9.20;3.13;;;;;;;;;;5066368;28;20025;-93
2021/11/02 18:46:28;;;;;;;4.15;2.58;;;;;;;;;;5053096;28;20033;-95
2021/11/02 18:48:55;;;;;;;5.25;2.30;;;;;;;;;;5063079;28;20029;-93
2021/11/02 18:51:21;;;;;;;5.20;2.58;;;;;;;;;;5054587;28;20025;-92
2021/11/02 18:53:48;;;;;;;6.43;2.70;;;;;;;;;;5066808;28;20032;-93
2021/11/02 18:56:14;;;;;;;5.50;2.50;;;;;;;;;;5056290;28;20045;-94
2021/11/02 18:58:41;;;;;;;4.57;2.33;;;;;;;;;;5078013;28;20078;-94
2021/11/02 19:01:08;;;;;;;5.50;2.65;;;;;;;;;;5077710;28;20059;-87
2021/11/02 19:03:34;;;;;;;5.18;2.67;;;;;;;;;;5073532;28;20040;-92
2021/11/02 19:06:01;;;;;;;5.22;2.30;;;;;;;;;;5067454;28;20080;-95
2021/11/02 19:08:30;;;;;;;5.15;2.55;;;;;;;;;;5076291;28;20016;-93
2021/11/02 19:10:57;;;;;;;4.82;3.13;;;;;;;;;;5066246;28;20021;-93
2021/11/02 19:13:23;;;;;;;4.28;2.10;;;;;;;;;;5053697;28;20025;-94
2021/11/02 19:15:50;;;;;;;5.32;2.10;;;;;;;;;;5064925;28;20038;-96
2021/11/02 19:18:17;;;;;;;4.90;2.17;;;;;;;;;;5060184;28;20029;-82
2021/11/02 19:20:44;;;;;;;4.53;2.25;;;;;;;;;;5062926;28;20032;-93
2021/11/02 19:23:11;;;;;;;4.88;2.58;;;;;;;;;;5057866;28;20029;-94
2021/11/02 19:25:37;;;;;;;4.90;2.22;;;;;;;;;;5058307;28;20059;-94
2021/11/02 19:28:04;;;;;;;6.15;2.05;;;;;;;;;;5061440;28;20037;-94
2021/11/02 19:30:31;;;;;;;5.97;2.35;;;;;;;;;;5056009;28;20033;-95
2021/11/02 19:32:57;;;;;;;3.90;2.42;;;;;;;;;;5069870;28;20029;-94
2021/11/02 19:35:24;;;;;;;5.47;2.20;;;;;;;;;;5054133;28;20038;-94
2021/11/02 19:37:51;;;;;;;5.72;2.20;;;;;;;;;;5062114;28;20033;-92
2021/11/02 19:40:17;;;;;;;5.10;2.28;;;;;;;;;;5053907;28;20032;-88
2021/11/02 19:42:46;;;;;;;4.28;2.10;;;;;;;;;;5054804;28;20028;-94
2021/11/02 19:45:15;;;;;;;4.03;2.10;;;;;;;;;;5057379;28;20059;-94
2021/11/02 19:47:42;;;;;;;5.90;2.30;;;;;;;;;;5060693;28;20033;-93
2021/11/02 19:50:12;;;;;;;4.28;2.10;;;;;;;;;;5063391;28;20021;-92
2021/11/02 19:52:46;;;;;;;6.63;2.00;;;;;;;;;;5063390;28;20032;-94
2021/11/02 19:55:15;;;;;;;5.45;2.03;;;;;;;;;;5082695;28;20041;-93